Marlin, Washington
Current Conditions -  °F | °C
As of 3:52 AM on Friday 31 Oct 2014 (Local Time) from KMWH Reporting Station
Broken Clouds Broken Clouds  
Wind Chill: 50°   Ceiling: 10000
Heat Index: 50°   Visibility: 10mi
Dew Point: 48°   Wind: 3mph
Humidity: 93%   Direction: 220°SW
Pressure: 29.75"   Gusts: NA
Location:  47.32°N, 119.01°W
Report Text: KMWH 311052Z AUTO 22003KT 10SM FEW075 BKN100 BKN110 10/09 A2975 RMK AO2 RAB12E25 SLP074 P0000 T01000089 TSNO
Loading
Personal Weather Stations






























Interactive Weather Map
Tropical Storm Tracking
New forecast layout! Learn more

10-Day Weather Forecast

Advertisements
Track Severe Weather on mobile